createdAt,value
2019-03-11T00:02:14.081Z,39.15
2019-03-11T00:04:45.809Z,43.02
2019-03-11T00:07:16.434Z,36.80
2019-03-11T00:09:48.158Z,37.25
2019-03-11T00:12:19.512Z,33.05
2019-03-11T00:14:49.784Z,27.25
2019-03-11T00:17:20.334Z,21.70
2019-03-11T00:19:50.968Z,21.20
2019-03-11T00:22:21.589Z,19.17
2019-03-11T00:24:51.893Z,21.62
2019-03-11T00:27:22.454Z,19.57
2019-03-11T00:29:52.905Z,13.90
2019-03-11T00:32:23.102Z,16.20
2019-03-11T00:34:53.714Z,14.30
2019-03-11T00:37:23.977Z,14.33
2019-03-11T00:39:54.181Z,10.23
2019-03-11T00:42:24.664Z,11.00
2019-03-11T00:44:55.227Z,9.23
2019-03-11T00:47:25.505Z,10.30
2019-03-11T00:49:56.072Z,11.33
2019-03-11T00:52:26.815Z,11.03
2019-03-11T00:54:57.401Z,12.28
2019-03-11T00:57:27.698Z,9.80
2019-03-11T00:59:57.916Z,11.48
2019-03-11T01:02:28.126Z,10.08
2019-03-11T01:04:58.324Z,10.43
2019-03-11T01:07:28.546Z,7.58
2019-03-11T01:09:58.757Z,7.50
2019-03-11T01:12:28.990Z,9.43
2019-03-11T01:14:59.195Z,7.90
2019-03-11T01:17:29.421Z,7.78
2019-03-11T01:19:59.645Z,8.93
2019-03-11T01:22:29.852Z,11.83
2019-03-11T01:25:00.256Z,11.90
2019-03-11T01:27:31.034Z,12.93
2019-03-11T01:30:01.700Z,12.47
2019-03-11T01:32:32.519Z,11.35
2019-03-11T01:35:02.746Z,12.45
2019-03-11T01:37:32.951Z,10.43
2019-03-11T01:40:03.205Z,12.85
2019-03-11T01:42:33.418Z,13.43
2019-03-11T01:45:05.258Z,11.80
2019-03-11T01:47:35.846Z,11.22
2019-03-11T01:50:08.178Z,14.07
2019-03-11T01:52:38.418Z,16.07
2019-03-11T01:55:14.044Z,12.58
2019-03-11T01:57:44.431Z,12.28
2019-03-11T02:00:17.051Z,14.87
2019-03-11T02:02:47.361Z,14.73
2019-03-11T02:05:17.901Z,12.18
2019-03-11T02:07:48.176Z,12.43
2019-03-11T02:10:19.514Z,10.80
2019-03-11T02:12:50.076Z,11.60
2019-03-11T02:15:20.739Z,10.38
2019-03-11T02:17:51.291Z,11.80
2019-03-11T02:20:21.937Z,11.60
2019-03-11T02:22:52.207Z,10.18
2019-03-11T02:25:22.772Z,9.58
2019-03-11T02:27:53.045Z,10.88
2019-03-11T02:30:23.328Z,14.98
2019-03-11T02:32:53.877Z,11.45
2019-03-11T02:35:29.378Z,11.08
2019-03-11T02:38:00.574Z,10.78
2019-03-11T02:40:31.589Z,11.68
2019-03-11T02:43:01.893Z,11.10
2019-03-11T02:45:32.517Z,14.80
2019-03-11T02:48:02.785Z,17.20
2019-03-11T02:50:33.022Z,13.80
2019-03-11T02:53:03.228Z,14.38
2019-03-11T02:55:33.452Z,15.68
2019-03-11T02:58:05.259Z,16.65
2019-03-11T03:00:35.831Z,20.05
2019-03-11T03:03:09.139Z,17.70
2019-03-11T03:05:43.893Z,14.53
2019-03-11T03:08:14.521Z,15.85
2019-03-11T03:10:45.408Z,18.65
2019-03-11T03:13:15.684Z,23.50
2019-03-11T03:15:46.279Z,18.12
2019-03-11T03:18:16.546Z,20.97
2019-03-11T03:20:46.795Z,20.23
2019-03-11T03:23:17.030Z,17.57
2019-03-11T03:25:47.582Z,17.95
2019-03-11T03:28:18.406Z,20.40
2019-03-11T03:30:48.608Z,17.55
2019-03-11T03:33:18.927Z,16.57
2019-03-11T03:35:49.123Z,19.05
2019-03-11T03:38:30.272Z,26.57
2019-03-11T03:40:52.077Z,21.65
2019-03-11T03:43:22.802Z,22.17
2019-03-11T03:45:53.151Z,30.85
2019-03-11T03:48:23.768Z,40.48
2019-03-11T03:50:54.079Z,55.98
2019-03-11T03:53:24.304Z,52.23
2019-03-11T03:55:54.508Z,60.00
2019-03-11T03:58:24.744Z,60.52
2019-03-11T04:00:54.980Z,60.40
2019-03-11T04:03:25.201Z,48.83
2019-03-11T04:05:55.478Z,47.73
2019-03-11T04:08:25.712Z,48.25
2019-03-11T04:10:55.933Z,41.65
2019-03-11T04:13:26.167Z,43.70
2019-03-11T04:15:56.366Z,37.78
2019-03-11T04:18:29.634Z,43.80
2019-03-11T04:21:00.019Z,42.10
2019-03-11T04:23:30.293Z,43.95
2019-03-11T04:26:00.883Z,49.65
2019-03-11T04:28:31.192Z,54.63
2019-03-11T04:31:01.842Z,42.25
2019-03-11T04:33:32.542Z,39.75
2019-03-11T04:36:03.164Z,45.17
2019-03-11T04:38:35.421Z,42.13
2019-03-11T04:41:06.051Z,42.50
2019-03-11T04:43:37.847Z,44.38
2019-03-11T04:46:08.476Z,42.05
2019-03-11T04:48:39.109Z,44.63
2019-03-11T04:51:09.756Z,38.70
2019-03-11T04:53:40.395Z,35.65
2019-03-11T04:56:10.670Z,33.35
2019-03-11T04:58:41.226Z,39.23
2019-03-11T05:01:11.523Z,27.62
2019-03-11T05:03:41.747Z,27.22
2019-03-11T05:06:11.955Z,36.28
2019-03-11T05:08:42.159Z,31.87
2019-03-11T05:11:12.390Z,29.65
2019-03-11T05:13:42.617Z,29.40
2019-03-11T05:16:13.174Z,29.70
2019-03-11T05:18:43.473Z,29.60
2019-03-11T05:21:13.696Z,27.30
2019-03-11T05:23:45.354Z,30.65
2019-03-11T05:26:15.659Z,28.80
2019-03-11T05:28:45.903Z,28.83
2019-03-11T05:31:16.512Z,31.75
2019-03-11T05:33:46.839Z,24.55
2019-03-11T05:36:17.419Z,27.58
2019-03-11T05:38:47.705Z,30.52
2019-03-11T05:41:18.265Z,26.12
2019-03-11T05:43:49.686Z,25.80
2019-03-11T05:46:20.272Z,21.97
2019-03-11T05:48:50.565Z,27.87
2019-03-11T05:51:30.857Z,28.60
2019-03-11T05:53:52.686Z,29.67
2019-03-11T05:56:23.295Z,23.77
2019-03-11T05:58:53.917Z,22.45
2019-03-11T06:01:25.039Z,25.72
2019-03-11T06:03:55.595Z,23.73
2019-03-11T06:06:26.248Z,18.07
2019-03-11T06:08:57.738Z,17.32
2019-03-11T06:11:28.517Z,19.07
2019-03-11T06:14:00.313Z,16.77
2019-03-11T06:16:30.712Z,14.47
2019-03-11T06:19:01.258Z,20.00
2019-03-11T06:21:36.673Z,18.40
2019-03-11T06:24:06.942Z,19.50
2019-03-11T06:26:37.163Z,18.07
2019-03-11T06:29:07.374Z,15.58
2019-03-11T06:31:37.944Z,19.52
2019-03-11T06:34:08.255Z,18.20
2019-03-11T06:36:38.458Z,12.90
2019-03-11T06:39:08.757Z,15.65
2019-03-11T06:41:39.007Z,14.38
2019-03-11T06:44:09.227Z,17.27
2019-03-11T06:46:39.440Z,15.45
2019-03-11T06:49:10.717Z,14.87
2019-03-11T06:51:41.275Z,19.23
2019-03-11T06:54:11.554Z,13.15
2019-03-11T06:56:41.810Z,22.25
2019-03-11T06:59:12.019Z,13.32
2019-03-11T07:01:42.228Z,17.17
2019-03-11T07:04:12.459Z,15.32
2019-03-11T07:06:42.705Z,22.67
2019-03-11T07:09:13.306Z,21.00
2019-03-11T07:11:43.571Z,25.90
2019-03-11T07:14:14.149Z,18.25
2019-03-11T07:16:44.816Z,19.50
2019-03-11T07:19:15.464Z,28.87
2019-03-11T07:21:46.065Z,28.32
2019-03-11T07:24:16.353Z,35.25
2019-03-11T07:26:47.747Z,25.95
2019-03-11T07:29:18.310Z,18.25
2019-03-11T07:31:48.598Z,24.00
2019-03-11T07:34:18.903Z,20.00
2019-03-11T07:36:49.157Z,23.95
2019-03-11T07:39:19.709Z,23.10
2019-03-11T07:41:50.334Z,17.10
2019-03-11T07:44:20.952Z,18.77
2019-03-11T07:46:51.597Z,19.30
2019-03-11T07:49:21.873Z,18.32
2019-03-11T07:51:52.092Z,16.60
2019-03-11T07:54:22.643Z,12.25
2019-03-11T07:56:52.936Z,10.70
2019-03-11T07:59:23.150Z,7.42
2019-03-11T08:01:53.755Z,7.67
2019-03-11T08:04:24.035Z,9.18
2019-03-11T08:06:54.657Z,8.15
2019-03-11T08:09:37.042Z,7.50
2019-03-11T08:11:57.368Z,7.20
2019-03-11T08:14:28.059Z,6.47
2019-03-11T08:16:58.738Z,6.30
2019-03-11T08:19:29.370Z,6.90
2019-03-11T08:22:00.006Z,7.28
2019-03-11T08:24:30.315Z,8.45
2019-03-11T08:27:00.515Z,10.25
2019-03-11T08:29:30.722Z,6.75
2019-03-11T08:32:00.925Z,8.83
2019-03-11T08:34:31.149Z,8.58
2019-03-11T08:37:01.380Z,8.38
2019-03-11T08:39:31.581Z,8.03
2019-03-11T08:42:01.819Z,11.05
2019-03-11T08:44:32.360Z,16.90
2019-03-11T08:47:02.965Z,10.93
2019-03-11T08:49:33.252Z,11.75
2019-03-11T08:52:05.464Z,8.18
2019-03-11T08:54:35.947Z,9.50
2019-03-11T08:57:06.472Z,9.38
2019-03-11T08:59:37.100Z,13.48
2019-03-11T09:02:07.304Z,8.75
2019-03-11T09:04:37.880Z,11.80
2019-03-11T09:07:08.512Z,12.05
2019-03-11T09:09:39.159Z,7.28
2019-03-11T09:12:11.049Z,11.38
2019-03-11T09:14:41.314Z,6.37
2019-03-11T09:17:11.905Z,9.20
2019-03-11T09:19:42.173Z,7.87
2019-03-11T09:22:12.405Z,10.55
2019-03-11T09:24:42.653Z,10.80
2019-03-11T09:27:12.870Z,16.70
2019-03-11T09:29:43.085Z,7.30
2019-03-11T09:32:13.310Z,7.53
2019-03-11T09:34:43.873Z,7.47
2019-03-11T09:37:14.151Z,6.83
2019-03-11T09:39:44.379Z,6.08
2019-03-11T09:42:14.586Z,7.85
2019-03-11T09:44:44.802Z,11.10
2019-03-11T09:47:15.094Z,12.40
2019-03-11T09:49:45.656Z,17.05
2019-03-11T09:52:16.361Z,8.68
2019-03-11T09:54:46.670Z,3.20
2019-03-11T09:57:17.342Z,8.10
2019-03-11T09:59:47.619Z,7.17
2019-03-11T10:02:18.240Z,11.88
2019-03-11T10:04:49.047Z,7.28
2019-03-11T10:07:19.666Z,8.25
2019-03-11T10:09:50.306Z,5.33
2019-03-11T10:12:20.755Z,6.45
2019-03-11T10:14:50.975Z,5.75
2019-03-11T10:17:21.248Z,4.47
2019-03-11T10:19:51.473Z,6.65
2019-03-11T10:22:21.725Z,6.17
2019-03-11T10:24:51.926Z,3.25
2019-03-11T10:27:22.125Z,3.87
2019-03-11T10:29:52.379Z,8.88
2019-03-11T10:32:22.584Z,4.53
2019-03-11T10:34:54.123Z,6.92
2019-03-11T10:37:24.707Z,3.90
2019-03-11T10:39:55.318Z,3.75
2019-03-11T10:42:25.619Z,5.08
2019-03-11T10:44:57.084Z,8.05
2019-03-11T10:47:27.849Z,3.98
2019-03-11T10:49:58.146Z,4.22
2019-03-11T10:52:28.348Z,4.28
2019-03-11T10:54:58.923Z,6.15
2019-03-11T10:57:29.571Z,7.50
2019-03-11T11:00:00.377Z,5.40
2019-03-11T11:02:30.774Z,5.72
2019-03-11T11:05:02.012Z,4.75
2019-03-11T11:07:32.566Z,5.35
2019-03-11T11:10:03.534Z,4.12
2019-03-11T11:12:33.740Z,5.10
2019-03-11T11:15:09.282Z,5.83
2019-03-11T11:17:39.852Z,4.45
2019-03-11T11:20:12.965Z,4.45
2019-03-11T11:22:43.677Z,3.62
2019-03-11T11:25:25.558Z,4.60
2019-03-11T11:27:56.453Z,5.90
2019-03-11T11:30:30.064Z,6.00
2019-03-11T11:33:01.364Z,6.42
2019-03-11T11:35:31.877Z,7.03
2019-03-11T11:38:02.514Z,7.33
2019-03-11T11:40:33.229Z,5.95
2019-03-11T11:43:03.635Z,6.03
2019-03-11T11:45:34.130Z,7.08
2019-03-11T11:48:05.003Z,3.87
2019-03-11T11:50:35.259Z,8.30
2019-03-11T11:53:05.488Z,8.15
2019-03-11T11:55:36.371Z,8.83
2019-03-11T11:58:06.967Z,6.75
2019-03-11T12:00:41.537Z,7.40
2019-03-11T12:03:12.108Z,8.40
2019-03-11T12:05:42.445Z,6.20
2019-03-11T12:08:12.958Z,5.08
2019-03-11T12:10:43.224Z,9.05
2019-03-11T12:13:13.678Z,8.45
2019-03-11T12:15:43.879Z,6.50
2019-03-11T12:18:14.100Z,6.03
2019-03-11T12:20:44.314Z,12.13
2019-03-11T12:23:14.554Z,6.40
2019-03-11T12:25:44.816Z,11.30
2019-03-11T12:28:15.107Z,10.00
2019-03-11T12:30:45.667Z,13.83
2019-03-11T12:33:15.951Z,7.67
2019-03-11T12:35:46.626Z,6.45
2019-03-11T12:38:16.898Z,7.03
2019-03-11T12:40:47.470Z,6.80
2019-03-11T12:43:17.745Z,9.68
2019-03-11T12:45:48.314Z,7.55
2019-03-11T12:48:18.583Z,8.60
2019-03-11T12:50:48.804Z,8.88
2019-03-11T12:53:19.006Z,7.10
2019-03-11T12:55:49.257Z,9.83
2019-03-11T12:58:19.940Z,12.40
2019-03-11T13:00:50.315Z,8.15
2019-03-11T13:03:20.564Z,10.10
2019-03-11T13:05:50.845Z,11.83
2019-03-11T13:08:21.063Z,12.50
2019-03-11T13:10:51.317Z,9.38
2019-03-11T13:13:21.598Z,11.53
2019-03-11T13:15:52.227Z,10.63
2019-03-11T13:18:38.571Z,10.18
2019-03-11T13:21:14.676Z,10.50
2019-03-11T13:23:45.261Z,12.70
2019-03-11T13:26:15.530Z,10.70
2019-03-11T13:28:46.084Z,10.60
2019-03-11T13:31:16.716Z,11.30
2019-03-11T13:33:47.032Z,10.18
2019-03-11T13:36:18.824Z,9.68
2019-03-11T13:38:49.475Z,10.85
2019-03-11T13:41:20.113Z,10.60
2019-03-11T13:43:50.403Z,7.60
2019-03-11T13:46:20.976Z,12.33
2019-03-11T13:48:51.767Z,11.68
2019-03-11T13:51:22.013Z,12.55
2019-03-11T13:53:52.222Z,9.40
2019-03-11T13:56:22.428Z,8.40
2019-03-11T13:58:52.631Z,10.23
2019-03-11T14:01:23.181Z,9.48
2019-03-11T14:03:53.482Z,10.88
2019-03-11T14:06:23.696Z,8.63
2019-03-11T14:08:53.907Z,6.40
2019-03-11T14:11:24.494Z,8.20
2019-03-11T14:13:54.855Z,9.73
2019-03-11T14:16:25.440Z,9.10
2019-03-11T14:18:55.739Z,9.90
2019-03-11T14:21:26.262Z,13.13
2019-03-11T14:23:56.666Z,8.65
2019-03-11T14:26:28.411Z,6.97
2019-03-11T14:28:58.801Z,7.47
2019-03-11T14:31:29.379Z,13.20
2019-03-11T14:34:00.190Z,10.32
2019-03-11T14:36:30.453Z,8.25
2019-03-11T14:39:00.690Z,9.78
2019-03-11T14:41:32.958Z,11.20
2019-03-11T14:44:03.213Z,9.63
2019-03-11T14:46:33.468Z,10.82
2019-03-11T14:49:03.759Z,7.67
2019-03-11T14:51:33.960Z,9.28
2019-03-11T14:54:04.256Z,10.20
2019-03-11T14:56:34.482Z,8.55
2019-03-11T14:59:05.090Z,12.10
2019-03-11T15:01:35.338Z,8.08
2019-03-11T15:04:06.554Z,10.32
2019-03-11T15:06:36.749Z,16.02
2019-03-11T15:09:07.147Z,12.70
2019-03-11T15:11:37.913Z,10.95
2019-03-11T15:14:08.545Z,14.68
2019-03-11T15:16:39.194Z,12.40
2019-03-11T15:19:09.852Z,12.95
2019-03-11T15:21:44.785Z,12.95
2019-03-11T15:24:15.088Z,12.28
2019-03-11T15:26:45.928Z,12.10
2019-03-11T15:29:16.500Z,9.63
2019-03-11T15:31:46.977Z,10.68
2019-03-11T15:34:17.136Z,15.78
2019-03-11T15:36:47.373Z,17.07
2019-03-11T15:39:19.586Z,17.23
2019-03-11T15:41:50.907Z,17.67
2019-03-11T15:44:24.529Z,21.60
2019-03-11T15:46:56.563Z,18.98
2019-03-11T15:49:26.688Z,14.95
2019-03-11T15:51:58.368Z,13.15
2019-03-11T15:54:28.603Z,10.50
2019-03-11T15:56:59.197Z,16.87
2019-03-11T15:59:29.829Z,19.67
2019-03-11T16:02:00.107Z,14.80
2019-03-11T16:04:30.333Z,26.57
2019-03-11T16:07:00.613Z,19.25
2019-03-11T16:09:31.168Z,13.85
2019-03-11T16:12:01.540Z,21.97
2019-03-11T16:14:31.751Z,12.78
2019-03-11T16:17:02.092Z,14.78
2019-03-11T16:19:32.843Z,17.50
2019-03-11T16:22:03.068Z,16.75
2019-03-11T16:24:33.271Z,13.88
2019-03-11T16:27:03.493Z,16.07
2019-03-11T16:29:34.105Z,17.55
2019-03-11T16:32:04.451Z,17.52
2019-03-11T16:34:34.650Z,19.15
2019-03-11T16:37:04.853Z,17.25
2019-03-11T16:39:35.096Z,12.80
2019-03-11T16:42:05.299Z,15.00
2019-03-11T16:44:35.533Z,12.28
2019-03-11T16:47:06.103Z,18.07
2019-03-11T16:49:36.410Z,16.85
2019-03-11T16:52:06.622Z,20.52
2019-03-11T16:54:38.028Z,26.00
2019-03-11T16:57:08.248Z,28.23
2019-03-11T16:59:38.494Z,32.03
2019-03-11T17:02:08.754Z,28.45
2019-03-11T17:04:38.989Z,27.87
2019-03-11T17:07:09.575Z,25.15
2019-03-11T17:09:39.875Z,23.00
2019-03-11T17:12:10.193Z,17.42
2019-03-11T17:14:40.411Z,18.07
2019-03-11T17:17:11.044Z,16.35
2019-03-11T17:19:41.369Z,16.62
2019-03-11T17:22:11.938Z,16.97
2019-03-11T17:24:42.254Z,20.97
2019-03-11T17:27:12.467Z,20.70
2019-03-11T17:29:42.787Z,19.90
2019-03-11T17:32:13.011Z,20.65
2019-03-11T17:34:43.654Z,22.50
2019-03-11T17:37:15.460Z,22.35
2019-03-11T17:39:46.158Z,24.07
2019-03-11T17:42:17.222Z,22.07
2019-03-11T17:44:48.038Z,23.95
2019-03-11T17:47:18.314Z,23.73
2019-03-11T17:49:48.901Z,26.48
2019-03-11T17:52:20.543Z,25.25
2019-03-11T17:54:50.791Z,23.77
2019-03-11T17:57:21.433Z,26.62
2019-03-11T17:59:52.225Z,25.02
2019-03-11T18:02:22.688Z,26.57
2019-03-11T18:04:53.617Z,30.97
2019-03-11T18:07:25.152Z,27.85
2019-03-11T18:09:55.433Z,27.90
2019-03-11T18:12:25.798Z,25.92
2019-03-11T18:14:56.257Z,26.50
2019-03-11T18:17:26.463Z,25.17
2019-03-11T18:19:56.700Z,26.50
2019-03-11T18:22:26.912Z,23.98
2019-03-11T18:24:57.173Z,28.20
2019-03-11T18:27:27.391Z,29.32
2019-03-11T18:29:57.648Z,27.30
2019-03-11T18:32:27.870Z,27.37
2019-03-11T18:34:58.105Z,27.40
2019-03-11T18:37:28.360Z,31.27
2019-03-11T18:39:58.621Z,27.98
2019-03-11T18:42:29.225Z,29.92
2019-03-11T18:45:00.461Z,28.92
2019-03-11T18:47:31.390Z,31.10
2019-03-11T18:50:01.937Z,28.17
2019-03-11T18:52:33.308Z,30.88
2019-03-11T18:55:04.260Z,27.90
2019-03-11T18:57:34.417Z,29.65
2019-03-11T19:00:07.763Z,33.80
2019-03-11T19:02:38.535Z,29.40
2019-03-11T19:05:13.184Z,34.38
2019-03-11T19:07:45.698Z,30.08
2019-03-11T19:10:16.587Z,27.62
2019-03-11T19:12:47.274Z,33.60
2019-03-11T19:15:21.069Z,29.77
2019-03-11T19:17:51.431Z,31.65
2019-03-11T19:20:26.695Z,31.90
2019-03-11T19:22:57.437Z,29.75
2019-03-11T19:25:27.776Z,30.82
2019-03-11T19:27:57.988Z,29.10
2019-03-11T19:30:29.466Z,30.57
2019-03-11T19:33:00.346Z,32.35
2019-03-11T19:35:32.399Z,30.48
2019-03-11T19:38:02.829Z,28.38
2019-03-11T19:40:34.372Z,26.35
2019-03-11T19:43:05.150Z,31.00
2019-03-11T19:45:38.623Z,28.45
2019-03-11T19:48:11.678Z,32.35
2019-03-11T19:50:42.047Z,30.45
2019-03-11T19:53:12.774Z,31.20
2019-03-11T19:55:43.046Z,29.52
2019-03-11T19:58:13.660Z,31.23
2019-03-11T20:00:43.989Z,30.92
2019-03-11T20:03:26.458Z,29.77
2019-03-11T20:05:46.280Z,33.20
2019-03-11T20:08:16.525Z,34.27
2019-03-11T20:10:47.213Z,34.25
2019-03-11T20:13:19.277Z,34.85
2019-03-11T20:15:49.561Z,31.45
2019-03-11T20:18:19.868Z,34.25
2019-03-11T20:20:50.767Z,35.15
2019-03-11T20:23:21.865Z,37.55
2019-03-11T20:25:52.103Z,37.85
2019-03-11T20:28:22.448Z,40.30
2019-03-11T20:30:53.277Z,41.02
2019-03-11T20:33:23.421Z,44.80
2019-03-11T20:35:53.640Z,44.70
2019-03-11T20:38:24.167Z,43.15
2019-03-11T20:40:55.985Z,45.75
2019-03-11T20:43:26.328Z,40.25
2019-03-11T20:45:56.620Z,40.75
2019-03-11T20:48:26.871Z,41.28
2019-03-11T20:50:57.122Z,43.42
2019-03-11T20:53:31.211Z,41.85
2019-03-11T20:56:01.406Z,38.85
2019-03-11T20:58:32.449Z,44.25
2019-03-11T21:01:03.143Z,43.85
2019-03-11T21:03:33.536Z,40.52
2019-03-11T21:06:08.314Z,42.23
2019-03-11T21:08:40.942Z,43.10
2019-03-11T21:11:11.326Z,42.03
2019-03-11T21:13:41.508Z,42.67
2019-03-11T21:16:11.857Z,43.13
2019-03-11T21:18:42.402Z,44.23
2019-03-11T21:21:13.174Z,37.65
2019-03-11T21:23:43.456Z,43.78
2019-03-11T21:26:13.843Z,44.18
2019-03-11T21:28:44.157Z,45.98
2019-03-11T21:31:18.350Z,43.17
2019-03-11T21:33:58.018Z,41.53
2019-03-11T21:36:21.013Z,47.65
2019-03-11T21:38:51.631Z,41.70
2019-03-11T21:41:22.001Z,45.63
2019-03-11T21:43:52.350Z,45.15
2019-03-11T21:46:22.911Z,40.08
2019-03-11T21:48:53.245Z,45.35
2019-03-11T21:51:24.171Z,42.80
2019-03-11T21:53:54.737Z,43.42
2019-03-11T21:56:25.363Z,45.05
2019-03-11T21:58:56.459Z,44.00
2019-03-11T22:01:26.782Z,46.37
2019-03-11T22:03:57.164Z,45.45
2019-03-11T22:06:30.580Z,42.88
2019-03-11T22:08:59.749Z,46.95
2019-03-11T22:11:30.709Z,41.63
2019-03-11T22:14:01.025Z,44.33
2019-03-11T22:16:31.583Z,45.38
2019-03-11T22:19:02.379Z,42.60
2019-03-11T22:21:32.703Z,41.18
2019-03-11T22:24:03.034Z,49.20
2019-03-11T22:26:33.792Z,46.20
2019-03-11T22:29:04.480Z,44.08
2019-03-11T22:31:34.795Z,40.00
2019-03-11T22:34:05.009Z,46.95
2019-03-11T22:36:35.218Z,43.38
2019-03-11T22:39:07.094Z,53.45
2019-03-11T22:41:37.652Z,45.60
2019-03-11T22:44:08.296Z,50.45
2019-03-11T22:46:38.578Z,43.60
2019-03-11T22:49:09.210Z,43.48
2019-03-11T22:51:39.508Z,43.68
2019-03-11T22:54:09.717Z,47.75
2019-03-11T22:56:40.097Z,45.60
2019-03-11T22:59:10.687Z,42.70
2019-03-11T23:01:42.098Z,43.75
2019-03-11T23:04:14.198Z,42.58
2019-03-11T23:06:45.368Z,40.85
2019-03-11T23:09:16.368Z,43.98
2019-03-11T23:11:47.204Z,47.23
2019-03-11T23:14:17.462Z,42.33
2019-03-11T23:16:47.974Z,46.50
2019-03-11T23:19:19.354Z,42.00
2019-03-11T23:21:49.567Z,44.70
2019-03-11T23:24:21.371Z,44.88
2019-03-11T23:26:52.069Z,43.02
2019-03-11T23:29:22.737Z,45.20
2019-03-11T23:31:53.357Z,44.60
2019-03-11T23:34:23.743Z,38.28
2019-03-11T23:36:54.320Z,42.73
2019-03-11T23:39:24.601Z,51.28
2019-03-11T23:41:55.193Z,48.10
2019-03-11T23:44:25.486Z,47.03
2019-03-11T23:46:56.063Z,47.88
2019-03-11T23:49:26.350Z,45.33
2019-03-11T23:51:56.910Z,50.80
2019-03-11T23:54:27.210Z,50.33
2019-03-11T23:56:57.774Z,44.42
2019-03-11T23:59:28.408Z,41.60
